Date,TemperatureHighF,TemperatureAvgF,TemperatureLowF,DewpointHighF,DewpointAvgF,DewpointLowF,HumidityHigh,HumidityAvg,HumidityLow,PressureMaxIn,PressureMinIn,WindSpeedMaxMPH,WindSpeedAvgMPH,GustSpeedMaxMPH,PrecipitationSumIn
2013-12-1,31.0,30.6,29.0,31.0,29.9,27.0,100,97,88,0.00,40.00,16,8,25,0.00
2013-12-2,32.0,25.6,13.0,32.0,24.9,11.0,100,97,90,0.00,40.00,7,4,15,0.00
2013-12-3,11.0,-0.7,-8.0,8.0,-12.2,-99.9,88,74,76,0.00,40.00,7,5,12,0.00
2013-12-4,4.0,-5.2,-10.0,-2.0,-11.1,-16.0,79,75,71,0.00,40.00,6,3,9,0.00
2013-12-5,7.0,-4.7,-10.0,1.0,-10.2,-16.0,81,77,72,0.00,40.00,4,2,6,0.00
2013-12-6,2.0,-8.1,-14.0,-6.0,-14.6,-21.0,76,72,67,0.00,40.00,4,3,7,0.00
2013-12-7,3.0,-9.7,-15.0,-5.0,-17.6,-99.9,75,71,65,0.00,40.00,5,2,7,0.00
2013-12-8,-1.0,-6.8,-13.0,-7.0,-12.8,-19.0,77,75,71,0.00,40.00,5,2,8,0.00
2013-12-9,12.0,4.1,-9.0,10.0,0.0,-15.0,90,82,74,0.00,40.00,5,2,7,0.00
2013-12-10,15.0,13.8,11.0,13.0,11.5,8.0,91,90,89,0.00,40.00,6,3,11,0.00
2013-12-11,26.0,18.6,14.0,21.0,15.4,11.0,91,87,80,0.00,40.00,5,2,8,0.09
2013-12-12,31.0,25.1,19.0,21.0,17.9,15.0,85,74,66,0.00,40.00,7,4,12,0.11
2013-12-13,27.0,24.7,22.0,26.0,22.0,16.0,100,90,72,0.00,40.00,9,6,13,0.01
2013-12-14,29.0,26.3,24.0,26.0,21.5,-99.9,100,87,70,0.00,40.00,10,6,17,0.01
2013-12-15,39.0,33.6,29.0,26.0,19.9,8.0,72,58,36,0.00,40.00,19,9,29,0.12
2013-12-16,40.0,32.8,28.0,21.0,14.9,11.0,64,48,35,0.00,40.00,16,7,24,0.05
2013-12-17,46.0,37.6,27.0,16.0,14.1,12.0,57,39,27,0.00,40.00,20,10,31,0.01
2013-12-18,39.0,33.4,25.0,27.0,16.0,12.0,100,52,34,0.00,40.00,18,11,35,0.01
2013-12-19,25.0,18.6,11.0,24.0,14.4,8.0,100,84,63,0.00,40.00,12,7,21,0.01
2013-12-20,22.0,15.3,10.0,19.0,10.4,4.0,98,82,47,0.00,40.00,14,6,22,0.01
2013-12-21,22.0,20.2,19.0,21.0,17.9,-99.9,100,95,91,0.00,40.00,11,7,22,0.01
2013-12-22,26.0,23.7,21.0,26.0,23.4,21.0,100,98,95,0.00,40.00,6,5,14,0.01
2013-12-23,33.0,29.2,23.0,32.0,28.9,21.0,100,99,91,0.00,40.00,35,8,51,0.05
2013-12-24,27.0,20.9,17.0,21.0,17.4,13.0,94,86,76,0.00,40.00,20,9,46,0.04
2013-12-25,33.0,22.9,16.0,14.0,10.8,5.0,85,63,35,0.00,40.00,9,5,11,0.13
2013-12-26,44.0,35.1,29.0,27.0,20.1,11.0,71,55,41,0.00,40.00,13,6,20,0.03
2013-12-27,45.0,37.1,32.0,16.0,14.6,13.0,50,40,29,0.00,40.00,17,8,29,0.00
2013-12-28,35.0,25.5,19.0,22.0,14.2,-99.9,74,65,39,0.00,40.00,18,10,29,0.00
2013-12-29,27.0,20.3,15.0,22.0,13.9,4.0,100,78,39,0.00,40.00,8,5,17,0.00
2013-12-30,37.0,28.9,23.0,30.0,23.5,19.0,100,81,58,0.00,40.00,13,5,19,0.04
2013-12-31,31.0,28.5,25.0,31.0,28.1,25.0,100,98,89,0.00,40.00,14,9,28,0.02